Time;durP1;ratioP1;P1;durP2;ratioP2;P2;SDS_P1;SDS_P2;PMS_P1;PMS_P2;Temp;Humidity;BMP_temperature;BMP_pressure;BME280_temperature;BME280_humidity;BME280_pressure;Samples;Min_cycle;Max_cycle;Signal;HPM_P1;HPM_P2
2021/09/16 00:00:39;;;;;;;;;;;16.90;46.30;;;;;;4326437;33;19979;-47
2021/09/16 00:03:05;;;;;;;;;;;16.90;46.40;;;;;;4326809;33;19987;-47
2021/09/16 00:05:31;;;;;;;;;;;16.90;46.30;;;;;;4326943;33;19990;-46
2021/09/16 00:07:57;;;;;;;;;;;16.90;46.20;;;;;;4326685;33;19974;-46
2021/09/16 00:10:24;;;;;;;;;;;16.90;46.20;;;;;;4327053;33;19971;-46
2021/09/16 00:12:50;;;;;;;;;;;16.90;46.10;;;;;;4326847;33;19978;-48
2021/09/16 00:15:16;;;;;;;;;;;16.90;46.10;;;;;;4326389;33;19983;-46
2021/09/16 00:17:42;;;;;;;;;;;16.90;46.00;;;;;;4326608;33;19987;-48
2021/09/16 00:20:09;;;;;;;;;;;16.90;45.90;;;;;;4326799;33;19974;-49
2021/09/16 00:22:35;;;;;;;;;;;17.00;45.90;;;;;;4326757;33;19986;-46
2021/09/16 00:25:01;;;;;;;;;;;17.00;45.80;;;;;;4326705;33;19971;-47
2021/09/16 00:27:27;;;;;;;;;;;17.10;45.70;;;;;;4326617;33;19968;-46
2021/09/16 00:29:53;;;;;;;;;;;17.10;45.60;;;;;;4326827;33;19986;-50
2021/09/16 00:32:20;;;;;;;;;;;17.10;45.50;;;;;;4339543;33;19963;-45
2021/09/16 00:34:46;;;;;;;;;;;17.00;45.40;;;;;;4343585;32;19970;-48
2021/09/16 00:37:12;;;;;;;;;;;16.90;45.40;;;;;;4343923;32;20411;-47
2021/09/16 00:39:38;;;;;;;;;;;16.90;45.50;;;;;;4343592;32;20449;-45
2021/09/16 00:42:04;;;;;;;;;;;16.80;45.50;;;;;;4343566;32;19963;-48
2021/09/16 00:44:30;;;;;;;;;;;16.70;45.60;;;;;;4343115;32;20423;-47
2021/09/16 00:46:59;;;;;;;;;;;16.70;45.70;;;;;;4343556;32;20045;-47
2021/09/16 00:49:25;;;;;;;;;;;16.70;45.80;;;;;;4343623;32;20046;-48
2021/09/16 00:51:51;;;;;;;;;;;16.70;45.80;;;;;;4343769;33;20084;-46
2021/09/16 00:54:18;;;;;;;;;;;16.70;45.80;;;;;;4329465;33;19959;-49
2021/09/16 00:56:44;;;;;;;;;;;16.80;45.90;;;;;;4317557;33;19979;-50
2021/09/16 00:59:11;;;;;;;;;;;16.80;45.80;;;;;;4329919;33;19978;-54
2021/09/16 01:01:37;;;;;;;;;;;16.80;45.80;;;;;;4313780;33;20038;-50
2021/09/16 01:04:03;;;;;;;;;;;16.80;45.80;;;;;;4326198;33;20450;-46
2021/09/16 01:06:29;;;;;;;;;;;16.90;45.80;;;;;;4327095;33;19971;-43
2021/09/16 01:08:55;;;;;;;;;;;16.90;45.70;;;;;;4317170;33;19979;-49
2021/09/16 01:11:22;;;;;;;;;;;16.90;45.60;;;;;;4329333;33;20420;-47
2021/09/16 01:13:48;;;;;;;;;;;16.90;45.60;;;;;;4329242;33;19967;-49
2021/09/16 01:16:14;;;;;;;;;;;16.90;45.50;;;;;;4328906;33;19971;-48
2021/09/16 01:18:40;;;;;;;;;;;16.90;45.50;;;;;;4299405;33;20051;-48
2021/09/16 01:21:07;;;;;;;;;;;16.90;45.50;;;;;;4300153;33;19983;-48
2021/09/16 01:23:33;;;;;;;;;;;16.90;45.40;;;;;;4300030;33;19976;-49
2021/09/16 01:25:59;;;;;;;;;;;16.80;45.50;;;;;;4299679;33;19964;-50
2021/09/16 01:28:25;;;;;;;;;;;16.80;45.60;;;;;;4299455;33;19980;-47
2021/09/16 01:30:51;;;;;;;;;;;16.80;45.50;;;;;;4299731;33;20075;-50
2021/09/16 01:33:17;;;;;;;;;;;16.70;45.60;;;;;;4322104;33;20105;-49
2021/09/16 01:35:43;;;;;;;;;;;16.70;45.80;;;;;;4329049;33;19987;-49
2021/09/16 01:38:10;;;;;;;;;;;16.60;45.70;;;;;;4328661;33;19982;-47
2021/09/16 01:40:36;;;;;;;;;;;16.60;45.90;;;;;;4328623;33;19963;-49
2021/09/16 01:43:02;;;;;;;;;;;16.50;45.80;;;;;;4328508;33;20049;-48
2021/09/16 01:45:28;;;;;;;;;;;16.50;46.60;;;;;;4328573;33;19967;-49
2021/09/16 01:47:55;;;;;;;;;;;16.50;46.10;;;;;;4318230;33;21302;-49
2021/09/16 01:50:22;;;;;;;;;;;16.40;46.10;;;;;;4357006;32;19996;-49
2021/09/16 01:52:48;;;;;;;;;;;16.30;46.30;;;;;;4360923;32;20373;-46
2021/09/16 01:55:15;;;;;;;;;;;16.20;46.40;;;;;;4360371;32;19971;-48
2021/09/16 01:57:41;;;;;;;;;;;16.20;46.70;;;;;;4360515;32;19978;-49
2021/09/16 02:00:08;;;;;;;;;;;16.10;46.90;;;;;;4360416;32;20447;-51
2021/09/16 02:02:42;;;;;;;;;;;16.10;47.00;;;;;;4360364;32;20001;-50
2021/09/16 02:05:09;;;;;;;;;;;16.00;47.00;;;;;;4360589;32;20059;-47
2021/09/16 02:07:35;;;;;;;;;;;16.00;47.00;;;;;;4360642;32;20514;-49
2021/09/16 02:10:02;;;;;;;;;;;15.90;47.00;;;;;;4360594;32;19970;-51
2021/09/16 02:12:28;;;;;;;;;;;15.90;47.10;;;;;;4360328;32;19966;-49
2021/09/16 02:14:54;;;;;;;;;;;16.00;47.20;;;;;;4359885;32;20043;-49
2021/09/16 02:17:20;;;;;;;;;;;16.00;47.20;;;;;;4360550;32;19970;-49
2021/09/16 02:19:46;;;;;;;;;;;16.00;47.10;;;;;;4359796;32;20424;-47
2021/09/16 02:22:12;;;;;;;;;;;16.00;47.10;;;;;;4360060;32;20440;-45
2021/09/16 02:24:39;;;;;;;;;;;16.00;47.20;;;;;;4359776;32;19970;-52
2021/09/16 02:27:05;;;;;;;;;;;16.00;47.10;;;;;;4346160;32;19967;-51
2021/09/16 02:29:31;;;;;;;;;;;16.00;47.00;;;;;;4360200;32;20502;-50
2021/09/16 02:31:57;;;;;;;;;;;16.00;47.00;;;;;;4360035;32;19978;-50
2021/09/16 02:34:23;;;;;;;;;;;16.00;47.10;;;;;;4360067;32;19962;-48
2021/09/16 02:36:50;;;;;;;;;;;16.10;47.10;;;;;;4359946;32;19962;-49
2021/09/16 02:39:16;;;;;;;;;;;16.10;47.10;;;;;;4360108;32;20426;-49
2021/09/16 02:41:42;;;;;;;;;;;16.10;47.10;;;;;;4359768;32;20115;-51
2021/09/16 02:44:08;;;;;;;;;;;16.10;47.20;;;;;;4359625;32;20083;-52
2021/09/16 02:46:34;;;;;;;;;;;16.20;47.20;;;;;;4359848;32;19976;-47
2021/09/16 02:49:01;;;;;;;;;;;16.20;47.10;;;;;;4350973;32;19974;-48
2021/09/16 02:51:28;;;;;;;;;;;16.20;47.10;;;;;;4345088;33;19999;-49
2021/09/16 02:53:54;;;;;;;;;;;16.30;47.10;;;;;;4344646;33;20114;-48
2021/09/16 02:56:20;;;;;;;;;;;16.30;46.90;;;;;;4344955;33;20056;-48
2021/09/16 02:58:46;;;;;;;;;;;16.30;46.90;;;;;;4344851;33;19969;-50
2021/09/16 03:01:12;;;;;;;;;;;16.30;47.00;;;;;;4327087;33;19990;-52
2021/09/16 03:03:39;;;;;;;;;;;16.30;47.00;;;;;;4327551;33;19974;-51
2021/09/16 03:06:05;;;;;;;;;;;16.20;47.10;;;;;;4327538;33;20044;-48
2021/09/16 03:08:31;;;;;;;;;;;16.20;47.20;;;;;;4315340;33;20411;-49
2021/09/16 03:10:57;;;;;;;;;;;16.20;47.30;;;;;;4327328;33;20001;-48
2021/09/16 03:13:23;;;;;;;;;;;16.30;47.40;;;;;;4326787;33;20047;-50
2021/09/16 03:15:49;;;;;;;;;;;16.30;47.30;;;;;;4326803;33;19990;-48
2021/09/16 03:18:16;;;;;;;;;;;16.40;47.40;;;;;;4327692;33;19994;-49
2021/09/16 03:20:42;;;;;;;;;;;16.50;47.30;;;;;;4327243;33;20177;-50
2021/09/16 03:23:08;;;;;;;;;;;16.60;47.20;;;;;;4327027;33;19986;-49
2021/09/16 03:25:34;;;;;;;;;;;16.60;47.00;;;;;;4327576;33;19990;-51
2021/09/16 03:28:00;;;;;;;;;;;16.70;47.00;;;;;;4327097;33;19987;-48
2021/09/16 03:30:26;;;;;;;;;;;16.80;46.90;;;;;;4326652;33;20113;-52
2021/09/16 03:32:53;;;;;;;;;;;16.90;46.80;;;;;;4327013;33;20454;-48
2021/09/16 03:35:19;;;;;;;;;;;17.00;46.70;;;;;;4326469;33;19975;-50
2021/09/16 03:37:45;;;;;;;;;;;17.00;46.60;;;;;;4316649;33;20053;-48
2021/09/16 03:40:11;;;;;;;;;;;17.20;46.50;;;;;;4344097;33;20151;-49
2021/09/16 03:42:38;;;;;;;;;;;17.30;46.40;;;;;;4344487;33;19959;-50
2021/09/16 03:45:04;;;;;;;;;;;17.40;46.10;;;;;;4344805;33;19965;-52
2021/09/16 03:47:31;;;;;;;;;;;17.50;45.80;;;;;;4343852;33;20005;-49
2021/09/16 03:49:57;;;;;;;;;;;17.60;45.70;;;;;;4358662;32;19998;-48
2021/09/16 03:52:23;;;;;;;;;;;17.80;45.60;;;;;;4358907;32;19981;-47
2021/09/16 03:54:49;;;;;;;;;;;17.80;45.10;;;;;;4358705;32;19982;-48
2021/09/16 03:57:15;;;;;;;;;;;17.90;44.80;;;;;;4358770;32;19971;-49
2021/09/16 03:59:41;;;;;;;;;;;18.00;44.80;;;;;;4358718;32;19997;-49
2021/09/16 04:02:08;;;;;;;;;;;18.00;44.70;;;;;;4358824;32;19966;-52
2021/09/16 04:04:34;;;;;;;;;;;18.10;44.60;;;;;;4358703;32;20042;-49
2021/09/16 04:07:00;;;;;;;;;;;18.30;44.50;;;;;;4358841;32;20004;-49
2021/09/16 04:09:26;;;;;;;;;;;18.40;44.40;;;;;;4358853;32;19971;-48
2021/09/16 04:11:53;;;;;;;;;;;18.60;44.10;;;;;;4358292;32;19984;-48
2021/09/16 04:14:19;;;;;;;;;;;18.70;43.50;;;;;;4358530;32;19963;-48
2021/09/16 04:16:45;;;;;;;;;;;18.80;43.40;;;;;;4358422;32;19962;-47
2021/09/16 04:19:11;;;;;;;;;;;18.90;42.90;;;;;;4358726;32;20422;-47
2021/09/16 04:21:38;;;;;;;;;;;19.00;42.10;;;;;;4358597;32;19974;-48
2021/09/16 04:24:04;;;;;;;;;;;19.00;42.10;;;;;;4358601;32;19970;-47
2021/09/16 04:26:31;;;;;;;;;;;19.00;42.10;;;;;;4358587;32;20001;-47
2021/09/16 04:28:57;;;;;;;;;;;19.10;41.90;;;;;;4358206;32;20407;-51
2021/09/16 04:31:23;;;;;;;;;;;19.20;39.50;;;;;;4358584;32;20395;-47
2021/09/16 04:33:49;;;;;;;;;;;19.20;39.10;;;;;;4358404;32;19966;-47
2021/09/16 04:36:15;;;;;;;;;;;19.20;39.30;;;;;;4357994;32;20006;-51
2021/09/16 04:38:41;;;;;;;;;;;19.30;39.40;;;;;;4343976;32;19982;-45
2021/09/16 04:41:08;;;;;;;;;;;19.40;38.80;;;;;;4357966;32;20378;-46
2021/09/16 04:43:34;;;;;;;;;;;19.40;38.40;;;;;;4358153;32;19990;-49
2021/09/16 04:46:00;;;;;;;;;;;19.30;36.90;;;;;;4358171;32;19958;-47
2021/09/16 04:48:26;;;;;;;;;;;19.30;36.90;;;;;;4352732;32;19974;-47
2021/09/16 04:50:52;;;;;;;;;;;19.30;37.00;;;;;;4329667;33;19994;-46
2021/09/16 04:53:19;;;;;;;;;;;19.30;37.20;;;;;;4342958;33;20128;-50
2021/09/16 04:55:45;;;;;;;;;;;19.30;36.60;;;;;;4329921;33;19994;-43
2021/09/16 04:58:11;;;;;;;;;;;19.30;36.90;;;;;;4343439;33;19963;-51
2021/09/16 05:00:37;;;;;;;;;;;19.30;37.00;;;;;;4343368;33;19959;-50
2021/09/16 05:03:04;;;;;;;;;;;19.40;37.30;;;;;;4343131;33;20546;-52
2021/09/16 05:05:32;;;;;;;;;;;19.50;37.20;;;;;;4343037;33;19987;-46
2021/09/16 05:07:58;;;;;;;;;;;19.60;36.80;;;;;;4343389;33;19971;-47
2021/09/16 05:10:24;;;;;;;;;;;19.70;36.80;;;;;;4342931;33;20004;-45
2021/09/16 05:12:50;;;;;;;;;;;19.80;36.60;;;;;;4343130;33;19963;-47
2021/09/16 05:15:16;;;;;;;;;;;19.90;36.40;;;;;;4329190;33;19998;-46
2021/09/16 05:17:43;;;;;;;;;;;19.90;35.40;;;;;;4343183;33;19975;-46
2021/09/16 05:20:09;;;;;;;;;;;19.80;34.00;;;;;;4343120;33;20422;-47
2021/09/16 05:22:36;;;;;;;;;;;19.80;34.30;;;;;;4343025;33;20505;-45
2021/09/16 05:25:02;;;;;;;;;;;19.70;34.70;;;;;;4343369;33;19982;-46
2021/09/16 05:27:28;;;;;;;;;;;19.70;35.10;;;;;;4343045;33;20052;-47
2021/09/16 05:29:55;;;;;;;;;;;19.90;35.30;;;;;;4343067;33;19979;-48
2021/09/16 05:32:22;;;;;;;;;;;19.90;34.90;;;;;;4343113;33;19994;-46
2021/09/16 05:34:48;;;;;;;;;;;20.00;35.20;;;;;;4342862;33;20396;-47
2021/09/16 05:37:14;;;;;;;;;;;20.10;33.80;;;;;;4343383;33;20006;-46
2021/09/16 05:39:40;;;;;;;;;;;20.10;33.90;;;;;;4343275;33;19974;-46
2021/09/16 05:42:06;;;;;;;;;;;20.00;33.60;;;;;;4343133;33;20454;-47
2021/09/16 05:44:33;;;;;;;;;;;20.00;33.90;;;;;;4329549;33;20002;-48
2021/09/16 05:46:59;;;;;;;;;;;19.90;33.40;;;;;;4342904;33;20025;-49
2021/09/16 05:49:25;;;;;;;;;;;19.90;34.10;;;;;;4354434;32;20069;-47
2021/09/16 05:51:51;;;;;;;;;;;19.90;34.20;;;;;;4357689;32;19977;-46
2021/09/16 05:54:17;;;;;;;;;;;20.00;34.20;;;;;;4358819;32;19959;-48
2021/09/16 05:56:44;;;;;;;;;;;20.10;33.90;;;;;;4360738;32;19959;-46
2021/09/16 05:59:10;;;;;;;;;;;20.20;34.00;;;;;;4360283;32;19967;-47
2021/09/16 06:01:36;;;;;;;;;;;20.20;33.10;;;;;;4360489;32;20001;-46
2021/09/16 06:04:02;;;;;;;;;;;20.10;33.30;;;;;;4360211;32;20146;-48
2021/09/16 06:06:28;;;;;;;;;;;20.10;33.70;;;;;;4360033;32;19973;-48
2021/09/16 06:08:54;;;;;;;;;;;19.90;33.70;;;;;;4360191;32;20495;-47
2021/09/16 06:11:20;;;;;;;;;;;19.90;34.10;;;;;;4359898;32;19977;-50
2021/09/16 06:13:47;;;;;;;;;;;19.70;34.00;;;;;;4359981;32;20436;-43
2021/09/16 06:16:13;;;;;;;;;;;19.60;34.40;;;;;;4359694;32;20065;-49
2021/09/16 06:18:39;;;;;;;;;;;19.50;35.10;;;;;;4360006;32;20055;-48
2021/09/16 06:21:05;;;;;;;;;;;19.40;35.80;;;;;;4360287;32;19967;-46
2021/09/16 06:23:31;;;;;;;;;;;19.40;36.80;;;;;;4359946;32;19969;-48
2021/09/16 06:25:58;;;;;;;;;;;19.40;37.10;;;;;;4359830;32;20410;-49
2021/09/16 06:28:24;;;;;;;;;;;19.40;37.50;;;;;;4359853;32;19974;-53
2021/09/16 06:30:50;;;;;;;;;;;19.40;37.50;;;;;;4359538;32;19978;-47
2021/09/16 06:33:16;;;;;;;;;;;19.50;37.50;;;;;;4360037;32;20070;-47
2021/09/16 06:35:42;;;;;;;;;;;19.50;37.90;;;;;;4360034;32;20044;-48
2021/09/16 06:38:09;;;;;;;;;;;19.50;37.80;;;;;;4359447;32;19986;-49
2021/09/16 06:40:35;;;;;;;;;;;19.50;37.90;;;;;;4359882;32;20055;-50
2021/09/16 06:43:01;;;;;;;;;;;19.50;37.70;;;;;;4359679;32;20538;-52
2021/09/16 06:45:27;;;;;;;;;;;19.50;37.60;;;;;;4359794;32;19973;-50
2021/09/16 06:47:54;;;;;;;;;;;19.50;37.60;;;;;;4358007;32;20038;-48
2021/09/16 06:50:20;;;;;;;;;;;19.40;37.60;;;;;;4344726;33;20593;-55
2021/09/16 06:52:46;;;;;;;;;;;19.40;37.80;;;;;;4344874;33;20391;-51
2021/09/16 06:55:12;;;;;;;;;;;19.50;38.10;;;;;;4344476;33;20004;-50
2021/09/16 06:57:38;;;;;;;;;;;19.60;38.10;;;;;;4345149;33;19959;-47
2021/09/16 07:00:07;;;;;;;;;;;19.60;38.00;;;;;;4330936;33;19967;-49
2021/09/16 07:02:34;;;;;;;;;;;19.70;38.00;;;;;;4344855;33;19977;-47
2021/09/16 07:05:01;;;;;;;;;;;19.80;38.00;;;;;;4344553;32;19974;-48
2021/09/16 07:07:27;;;;;;;;;;;19.80;38.00;;;;;;4344600;33;20376;-48
2021/09/16 07:09:54;;;;;;;;;;;19.90;37.80;;;;;;4344418;33;20072;-48
2021/09/16 07:12:20;;;;;;;;;;;19.90;37.70;;;;;;4344627;33;19990;-44
2021/09/16 07:14:46;;;;;;;;;;;19.90;37.70;;;;;;4344153;33;20056;-48
2021/09/16 07:17:12;;;;;;;;;;;19.80;37.70;;;;;;4344151;33;20038;-46
2021/09/16 07:19:38;;;;;;;;;;;19.70;37.50;;;;;;4344278;33;20404;-49
2021/09/16 07:22:05;;;;;;;;;;;19.70;37.60;;;;;;4344095;33;20037;-49
2021/09/16 07:24:31;;;;;;;;;;;19.70;37.80;;;;;;4344510;33;20016;-46
2021/09/16 07:26:57;;;;;;;;;;;19.70;37.80;;;;;;4344068;33;19966;-45
2021/09/16 07:29:24;;;;;;;;;;;19.80;38.20;;;;;;4344253;33;19970;-48
2021/09/16 07:31:50;;;;;;;;;;;19.90;38.20;;;;;;4344720;33;20032;-47
2021/09/16 07:34:18;;;;;;;;;;;20.00;38.00;;;;;;4344175;33;20047;-47
2021/09/16 07:36:45;;;;;;;;;;;20.00;37.40;;;;;;4344306;33;19974;-51
2021/09/16 07:39:12;;;;;;;;;;;20.10;37.30;;;;;;4344098;33;20001;-51
2021/09/16 07:41:39;;;;;;;;;;;20.10;36.90;;;;;;4344544;33;19979;-49
2021/09/16 07:44:05;;;;;;;;;;;20.10;37.10;;;;;;4344176;33;19963;-46
2021/09/16 07:46:31;;;;;;;;;;;20.20;37.20;;;;;;4343767;33;19983;-46
2021/09/16 07:48:58;;;;;;;;;;;20.40;37.10;;;;;;4352605;32;19967;-50
2021/09/16 07:51:24;;;;;;;;;;;20.50;37.00;;;;;;4358779;32;19969;-48
2021/09/16 07:53:50;;;;;;;;;;;20.60;37.00;;;;;;4359214;32;19972;-47
2021/09/16 07:56:16;;;;;;;;;;;20.80;36.90;;;;;;4358808;32;19972;-48
2021/09/16 07:58:43;;;;;;;;;;;21.00;36.60;;;;;;4358561;32;19994;-47
2021/09/16 08:01:09;;;;;;;;;;;21.30;36.30;;;;;;4358511;32;20046;-51
2021/09/16 08:03:36;;;;;;;;;;;21.40;35.20;;;;;;4344594;32;20387;-49
2021/09/16 08:06:02;;;;;;;;;;;21.60;35.20;;;;;;4358824;32;20490;-47
2021/09/16 08:08:28;;;;;;;;;;;21.60;35.00;;;;;;4358602;32;19962;-45
2021/09/16 08:10:55;;;;;;;;;;;21.80;35.10;;;;;;4358676;32;20065;-48
2021/09/16 08:13:21;;;;;;;;;;;22.00;34.00;;;;;;4359058;32;20005;-50
2021/09/16 08:15:47;;;;;;;;;;;22.10;33.30;;;;;;4357887;32;20386;-52
2021/09/16 08:18:13;;;;;;;;;;;22.30;33.50;;;;;;4344615;32;20009;-50
2021/09/16 08:20:43;;;;;;;;;;;22.40;32.70;;;;;;4358337;32;19977;-52
2021/09/16 08:23:09;;;;;;;;;;;22.50;32.50;;;;;;4358091;32;20575;-49
2021/09/16 08:25:35;;;;;;;;;;;22.60;30.80;;;;;;4358325;32;20030;-51
2021/09/16 08:28:01;;;;;;;;;;;22.60;29.80;;;;;;4358103;32;20068;-51
2021/09/16 08:30:27;;;;;;;;;;;22.60;29.70;;;;;;4358372;32;19965;-49
2021/09/16 08:32:54;;;;;;;;;;;22.70;30.20;;;;;;4358379;32;19985;-52
2021/09/16 08:35:20;;;;;;;;;;;22.70;29.90;;;;;;4358456;32;19963;-51
2021/09/16 08:37:47;;;;;;;;;;;22.80;29.90;;;;;;4358016;32;20035;-52
2021/09/16 08:40:13;;;;;;;;;;;22.90;30.10;;;;;;4358214;32;20414;-52
2021/09/16 08:42:44;;;;;;;;;;;23.00;30.00;;;;;;4358008;32;20473;-51
2021/09/16 08:45:15;;;;;;;;;;;23.10;30.10;;;;;;4358264;32;19970;-53
2021/09/16 08:47:45;;;;;;;;;;;23.30;29.00;;;;;;4357405;32;20103;-53
2021/09/16 08:50:12;;;;;;;;;;;23.40;28.70;;;;;;4343375;33;19966;-52
2021/09/16 08:52:39;;;;;;;;;;;23.50;28.60;;;;;;4343129;33;20505;-52
2021/09/16 08:55:07;;;;;;;;;;;23.50;27.90;;;;;;4343300;33;19962;-52
2021/09/16 08:57:37;;;;;;;;;;;23.60;27.80;;;;;;4329620;33;20043;-54
2021/09/16 09:00:09;;;;;;;;;;;23.70;27.80;;;;;;4343293;33;20084;-51
2021/09/16 09:02:35;;;;;;;;;;;23.70;27.90;;;;;;4343226;33;19982;-50
2021/09/16 09:05:03;;;;;;;;;;;23.80;28.20;;;;;;4342870;33;19970;-48
2021/09/16 09:07:43;;;;;;;;;;;23.90;28.20;;;;;;4343178;33;19978;-52
2021/09/16 09:10:11;;;;;;;;;;;24.00;27.60;;;;;;4343202;33;20002;-52
2021/09/16 09:12:38;;;;;;;;;;;24.10;27.50;;;;;;4343229;33;20391;-58
2021/09/16 09:15:06;;;;;;;;;;;24.30;27.50;;;;;;4343152;33;19979;-55
2021/09/16 09:17:33;;;;;;;;;;;24.50;27.70;;;;;;4343077;33;19970;-55
2021/09/16 09:20:08;;;;;;;;;;;24.70;26.50;;;;;;4343426;33;19971;-56
2021/09/16 09:22:39;;;;;;;;;;;24.90;26.70;;;;;;4342973;33;20018;-52
2021/09/16 09:25:11;;;;;;;;;;;25.00;26.10;;;;;;4342989;33;20497;-53
2021/09/16 09:27:39;;;;;;;;;;;25.10;25.80;;;;;;4343517;32;20444;-52
2021/09/16 09:30:08;;;;;;;;;;;25.20;26.00;;;;;;4345737;33;20014;-53
2021/09/16 09:32:46;;;;;;;;;;;25.20;25.80;;;;;;4345875;33;20002;-55
2021/09/16 09:35:31;;;;;;;;;;;25.10;25.80;;;;;;4345784;33;20050;-55
2021/09/16 09:37:58;;;;;;;;;;;25.20;26.10;;;;;;4346079;33;19962;-51
2021/09/16 09:40:32;;;;;;;;;;;25.20;26.30;;;;;;4346062;33;19978;-53
2021/09/16 09:43:28;;;;;;;;;;;25.10;26.30;;;;;;4332690;33;19979;-45
2021/09/16 09:46:13;;;;;;;;;;;25.00;26.50;;;;;;4339172;33;20441;-52
2021/09/16 09:48:44;;;;;;;;;;;25.00;26.60;;;;;;4352471;32;19985;-56
2021/09/16 09:51:12;;;;;;;;;;;24.90;26.30;;;;;;4360712;32;19966;-52
2021/09/16 09:53:39;;;;;;;;;;;24.90;26.00;;;;;;4313262;33;20059;-54
2021/09/16 09:56:13;;;;;;;;;;;24.90;26.00;;;;;;4313248;33;19963;-53
2021/09/16 09:58:39;;;;;;;;;;;25.00;26.20;;;;;;4313384;33;19983;-55
2021/09/16 10:01:34;;;;;;;;;;;24.90;26.30;;;;;;4313065;33;19974;-51
2021/09/16 10:04:27;;;;;;;;;;;24.90;26.90;;;;;;4313787;33;19971;-50
2021/09/16 10:06:54;;;;;;;;;;;24.70;26.20;;;;;;4295875;33;19986;-54
2021/09/16 10:09:21;;;;;;;;;;;24.60;26.40;;;;;;4313682;33;20074;-55
2021/09/16 10:11:48;;;;;;;;;;;24.60;26.40;;;;;;4313087;33;20071;-55
2021/09/16 10:14:15;;;;;;;;;;;24.50;26.50;;;;;;4313200;33;20023;-57
2021/09/16 10:16:41;;;;;;;;;;;24.50;26.60;;;;;;4313541;33;19963;-54
2021/09/16 10:19:08;;;;;;;;;;;24.60;26.70;;;;;;4313541;33;20534;-55
2021/09/16 10:21:34;;;;;;;;;;;24.60;26.80;;;;;;4313436;33;20462;-56
2021/09/16 10:24:00;;;;;;;;;;;24.60;26.70;;;;;;4313545;33;20467;-56
2021/09/16 10:26:48;;;;;;;;;;;24.70;26.80;;;;;;4313254;33;20537;-55
2021/09/16 10:29:27;;;;;;;;;;;24.80;26.80;;;;;;4313572;33;19964;-52
2021/09/16 10:32:05;;;;;;;;;;;24.90;26.50;;;;;;4351223;32;19962;-55
2021/09/16 10:34:47;;;;;;;;;;;24.90;26.50;;;;;;4360080;32;20038;-43
2021/09/16 10:37:15;;;;;;;;;;;25.10;26.60;;;;;;4359962;32;20362;-55
2021/09/16 10:39:42;;;;;;;;;;;25.20;26.40;;;;;;4345408;32;20082;-54
2021/09/16 10:42:09;;;;;;;;;;;25.10;26.10;;;;;;4359828;32;19967;-49
2021/09/16 10:44:36;;;;;;;;;;;24.90;26.30;;;;;;4345831;32;20437;-53
2021/09/16 10:47:16;;;;;;;;;;;24.90;26.00;;;;;;4345736;32;20452;-49
2021/09/16 10:49:43;;;;;;;;;;;25.00;26.10;;;;;;4346455;32;19970;-54
2021/09/16 10:52:09;;;;;;;;;;;25.20;26.20;;;;;;4344876;33;20050;-53
2021/09/16 10:54:42;;;;;;;;;;;25.30;26.40;;;;;;4344290;33;20430;-55
2021/09/16 10:57:28;;;;;;;;;;;25.20;26.40;;;;;;4344843;33;19975;-53
2021/09/16 10:59:54;;;;;;;;;;;25.20;26.30;;;;;;4344477;33;19971;-53
2021/09/16 11:02:21;;;;;;;;;;;25.30;26.40;;;;;;4344877;33;19966;-50
2021/09/16 11:04:59;;;;;;;;;;;25.30;26.50;;;;;;4319040;33;19962;-50
2021/09/16 11:07:35;;;;;;;;;;;25.40;26.60;;;;;;4344637;33;20396;-50
2021/09/16 11:10:16;;;;;;;;;;;25.40;26.70;;;;;;4344607;33;19978;-53
2021/09/16 11:12:50;;;;;;;;;;;25.40;26.90;;;;;;4344302;33;19966;-51
2021/09/16 11:15:30;;;;;;;;;;;25.30;26.80;;;;;;4344126;33;19963;-48
2021/09/16 11:18:06;;;;;;;;;;;25.10;26.90;;;;;;4330853;33;20047;-52
2021/09/16 11:20:33;;;;;;;;;;;25.00;27.00;;;;;;4344342;33;19963;-48
2021/09/16 11:22:59;;;;;;;;;;;24.90;27.30;;;;;;4331093;33;20035;-49
2021/09/16 11:25:25;;;;;;;;;;;24.80;27.60;;;;;;4344153;33;19955;-50
2021/09/16 11:27:55;;;;;;;;;;;24.70;27.70;;;;;;4343924;33;19963;-50
2021/09/16 11:30:21;;;;;;;;;;;24.50;27.70;;;;;;4344296;33;20016;-53
2021/09/16 11:32:48;;;;;;;;;;;24.30;27.70;;;;;;4344131;33;20083;-50
2021/09/16 11:35:15;;;;;;;;;;;24.10;27.80;;;;;;4344216;33;20483;-48
2021/09/16 11:37:43;;;;;;;;;;;23.90;27.80;;;;;;4343922;33;19963;-50
2021/09/16 11:40:48;;;;;;;;;;;23.70;28.00;;;;;;4344155;33;20015;-51
2021/09/16 11:43:16;;;;;;;;;;;23.60;28.10;;;;;;4268386;33;20436;-52
2021/09/16 11:45:48;;;;;;;;;;;23.30;28.20;;;;;;4268931;33;19984;-52
2021/09/16 11:48:19;;;;;;;;;;;23.10;28.10;;;;;;4260674;33;19976;-52
2021/09/16 11:51:04;;;;;;;;;;;23.00;28.60;;;;;;4282891;33;19975;-51
2021/09/16 11:53:34;;;;;;;;;;;22.90;29.20;;;;;;4283051;33;19971;-49
2021/09/16 11:56:04;;;;;;;;;;;22.60;29.50;;;;;;4282772;33;20462;-51
2021/09/16 11:58:35;;;;;;;;;;;22.50;29.80;;;;;;4282975;33;19987;-50
2021/09/16 12:01:04;;;;;;;;;;;22.30;30.00;;;;;;4271569;33;20007;-51
2021/09/16 12:03:37;;;;;;;;;;;22.10;30.10;;;;;;4282963;33;19980;-53
2021/09/16 12:06:07;;;;;;;;;;;21.90;30.30;;;;;;4271170;33;20036;-50
2021/09/16 12:08:35;;;;;;;;;;;21.80;30.40;;;;;;4283350;33;19991;-50
2021/09/16 12:11:05;;;;;;;;;;;21.60;30.60;;;;;;4283068;33;19976;-49
2021/09/16 12:13:41;;;;;;;;;;;21.50;30.70;;;;;;4282516;33;20501;-52
2021/09/16 12:16:10;;;;;;;;;;;21.50;30.90;;;;;;4282651;33;19999;-46
2021/09/16 12:18:37;;;;;;;;;;;21.40;30.90;;;;;;4287253;33;19995;-52
2021/09/16 12:21:04;;;;;;;;;;;21.30;30.90;;;;;;4342153;33;19966;-55
2021/09/16 12:23:30;;;;;;;;;;;21.10;31.00;;;;;;4326094;33;20431;-53
2021/09/16 12:26:07;;;;;;;;;;;20.90;31.00;;;;;;4313097;33;19970;-54
2021/09/16 12:28:34;;;;;;;;;;;20.70;31.50;;;;;;4325365;33;20411;-54
2021/09/16 12:31:04;;;;;;;;;;;20.40;31.90;;;;;;4301366;33;19975;-51
2021/09/16 12:33:39;;;;;;;;;;;20.20;32.20;;;;;;4326537;33;19986;-51
2021/09/16 12:36:17;;;;;;;;;;;20.10;32.50;;;;;;4326682;33;19966;-51
2021/09/16 12:39:01;;;;;;;;;;;20.00;32.40;;;;;;4326374;33;19991;-54
2021/09/16 12:41:33;;;;;;;;;;;19.90;32.60;;;;;;4326204;33;20056;-55
2021/09/16 12:44:06;;;;;;;;;;;19.80;32.60;;;;;;4326063;33;20076;-54
2021/09/16 12:46:42;;;;;;;;;;;19.80;32.80;;;;;;4326166;33;19975;-55
2021/09/16 12:49:20;;;;;;;;;;;19.70;32.60;;;;;;4316952;33;20069;-55
2021/09/16 12:51:46;;;;;;;;;;;19.60;32.80;;;;;;4311702;33;19975;-55
2021/09/16 12:54:20;;;;;;;;;;;19.50;33.00;;;;;;4293084;33;20372;-55
2021/09/16 12:56:46;;;;;;;;;;;19.40;33.00;;;;;;4328448;33;20044;-55
2021/09/16 12:59:19;;;;;;;;;;;19.40;33.10;;;;;;4328812;33;19970;-52
2021/09/16 13:01:46;;;;;;;;;;;19.30;33.30;;;;;;4328212;33;19972;-54
2021/09/16 13:04:13;;;;;;;;;;;19.10;33.30;;;;;;4331177;33;19975;-58
2021/09/16 13:06:39;;;;;;;;;;;19.00;33.60;;;;;;4331649;33;19996;-55
2021/09/16 13:09:05;;;;;;;;;;;18.90;33.80;;;;;;4331530;33;19967;-55
2021/09/16 13:11:32;;;;;;;;;;;18.80;33.50;;;;;;4331131;33;20409;-55
2021/09/16 13:14:11;;;;;;;;;;;18.70;33.50;;;;;;4331493;33;19966;-55
2021/09/16 13:16:39;;;;;;;;;;;18.60;33.70;;;;;;4331958;33;20073;-57
2021/09/16 13:19:05;;;;;;;;;;;18.50;34.00;;;;;;4332761;33;20076;-54
2021/09/16 13:21:32;;;;;;;;;;;18.40;33.90;;;;;;4346112;33;20002;-55
2021/09/16 13:23:58;;;;;;;;;;;18.30;33.90;;;;;;4346061;33;19974;-57
2021/09/16 13:26:25;;;;;;;;;;;18.30;34.20;;;;;;4331989;33;19985;-55
2021/09/16 13:28:53;;;;;;;;;;;18.20;34.10;;;;;;4332405;33;19975;-56
2021/09/16 13:31:22;;;;;;;;;;;18.10;34.50;;;;;;4345469;33;19962;-55
2021/09/16 13:33:48;;;;;;;;;;;17.90;34.70;;;;;;4331949;33;19986;-50
2021/09/16 13:36:14;;;;;;;;;;;17.70;35.00;;;;;;4331862;33;19963;-57
2021/09/16 13:38:40;;;;;;;;;;;17.70;35.40;;;;;;4331927;33;20372;-58
2021/09/16 13:41:08;;;;;;;;;;;17.60;35.30;;;;;;4345354;33;20475;-56
2021/09/16 13:43:34;;;;;;;;;;;17.70;35.20;;;;;;4345639;33;20034;-56
2021/09/16 13:46:00;;;;;;;;;;;17.60;35.00;;;;;;4345533;33;19998;-57
2021/09/16 13:48:27;;;;;;;;;;;17.70;35.10;;;;;;4345812;33;20403;-59
2021/09/16 13:50:53;;;;;;;;;;;17.70;34.80;;;;;;4345387;33;20054;-55
2021/09/16 13:53:19;;;;;;;;;;;17.60;35.00;;;;;;4345645;33;19994;-58
2021/09/16 13:55:46;;;;;;;;;;;17.60;35.30;;;;;;4331699;33;19970;-54
2021/09/16 13:58:12;;;;;;;;;;;17.60;35.40;;;;;;4345575;33;19970;-58
2021/09/16 14:00:38;;;;;;;;;;;17.40;35.00;;;;;;4345281;33;19970;-58
2021/09/16 14:03:05;;;;;;;;;;;17.30;35.30;;;;;;4345386;33;20062;-57
2021/09/16 14:05:31;;;;;;;;;;;17.10;35.50;;;;;;4345005;33;20432;-56
2021/09/16 14:07:57;;;;;;;;;;;17.10;35.80;;;;;;4345282;33;19966;-59
2021/09/16 14:10:23;;;;;;;;;;;17.00;36.60;;;;;;4345259;33;20044;-57
2021/09/16 14:12:49;;;;;;;;;;;16.90;36.20;;;;;;4345539;33;19986;-55
2021/09/16 14:15:16;;;;;;;;;;;16.90;36.40;;;;;;4343760;33;19979;-57
2021/09/16 14:17:42;;;;;;;;;;;16.80;36.40;;;;;;4331493;33;20367;-56
2021/09/16 14:20:09;;;;;;;;;;;16.80;36.40;;;;;;4344989;33;19990;-55